Time;durP1;ratioP1;P1;durP2;ratioP2;P2;SDS_P1;SDS_P2;PMS_P1;PMS_P2;Temp;Humidity;BMP_temperature;BMP_pressure;BME280_temperature;BME280_humidity;BME280_pressure;Samples;Min_cycle;Max_cycle;Signal;HPM_P1;HPM_P2
2022/05/23 00:01:35;;;;;;;0.10;0.10;;;;;;;20.80;43.20;98309.25;5029778;28;20022;-81
2022/05/23 00:04:00;;;;;;;0.05;0.05;;;;;;;20.78;43.27;98315.03;5029450;28;20501;-80
2022/05/23 00:06:26;;;;;;;0.10;0.10;;;;;;;20.82;43.39;98312.38;5031015;28;20059;-86
2022/05/23 00:08:51;;;;;;;0.10;0.10;;;;;;;20.83;43.52;98319.38;5029645;28;20037;-83
2022/05/23 00:11:19;;;;;;;0.10;0.10;;;;;;;20.81;43.76;98312.75;5040236;28;20498;-90
2022/05/23 00:13:46;;;;;;;0.05;0.05;;;;;;;20.80;43.93;98320.13;5036322;28;20120;-94
2022/05/23 00:16:20;;;;;;;0.00;0.00;;;;;;;20.77;44.61;98313.47;5030756;28;20037;-88
2022/05/23 00:18:47;;;;;;;0.00;0.00;;;;;;;20.76;44.72;98314.63;5029886;28;20030;-87
2022/05/23 00:21:12;;;;;;;0.00;0.00;;;;;;;20.71;45.06;98312.16;5029482;28;20496;-82
2022/05/23 00:23:38;;;;;;;0.00;0.00;;;;;;;20.72;45.38;98315.72;5029481;28;20029;-80
2022/05/23 00:26:03;;;;;;;0.00;0.00;;;;;;;20.73;45.51;98315.34;5029973;28;20022;-76
2022/05/23 00:28:29;;;;;;;0.08;0.08;;;;;;;20.72;45.81;98315.72;5039772;28;20304;-80
2022/05/23 00:30:54;;;;;;;0.10;0.10;;;;;;;20.67;46.11;98318.69;5029572;28;20036;-90
2022/05/23 00:36:04;;;;;;;0.10;0.10;;;;;;;20.58;46.52;98322.44;5048377;28;20064;-82
2022/05/23 00:38:30;;;;;;;0.08;0.08;;;;;;;20.59;46.72;98320.47;5053287;28;20412;-81
2022/05/23 00:44:05;;;;;;;0.00;0.00;;;;;;;20.49;47.23;98316.44;5054090;28;20036;-82
2022/05/23 00:46:31;;;;;;;0.05;0.05;;;;;;;20.51;47.41;98322.28;5050761;28;20082;-82
2022/05/23 00:49:05;;;;;;;0.10;0.10;;;;;;;20.45;47.44;98318.31;5052918;28;20035;-82
2022/05/23 00:51:32;;;;;;;0.00;0.00;;;;;;;20.41;47.46;98320.16;5053024;28;20395;-81
2022/05/23 00:54:01;;;;;;;0.00;0.00;;;;;;;20.31;47.80;98308.75;5041837;28;20033;-81
2022/05/23 00:56:37;;;;;;;0.00;0.00;;;;;;;20.31;47.89;98314.19;5037094;28;20032;-83
2022/05/23 00:59:04;;;;;;;0.10;0.10;;;;;;;20.31;48.10;98310.66;5032260;28;20040;-84
2022/05/23 01:01:35;;;;;;;0.10;0.10;;;;;;;20.29;48.12;98308.31;5050418;28;20106;-82
2022/05/23 01:04:01;;;;;;;0.00;0.00;;;;;;;20.31;48.10;98310.66;5052424;28;20507;-82
2022/05/23 01:06:27;;;;;;;0.00;0.00;;;;;;;20.28;48.03;98308.69;5039667;28;20033;-77
2022/05/23 01:08:55;;;;;;;0.10;0.10;;;;;;;20.32;48.08;98314.94;5032537;28;20037;-85
2022/05/23 01:11:21;;;;;;;0.00;0.00;;;;;;;20.38;47.92;98310.03;5032913;28;20033;-84
2022/05/23 01:13:46;;;;;;;0.00;0.00;;;;;;;20.36;48.15;98313.09;5032750;28;20116;-86
2022/05/23 01:16:12;;;;;;;0.00;0.00;;;;;;;20.35;48.13;98308.81;5048684;28;20031;-83
2022/05/23 01:18:37;;;;;;;0.00;0.00;;;;;;;20.28;48.38;98304.03;5038812;28;20497;-85
2022/05/23 01:21:06;;;;;;;0.13;0.13;;;;;;;20.26;48.47;98305.53;5032621;28;20029;-90
2022/05/23 01:23:40;;;;;;;0.00;0.00;;;;;;;20.24;48.53;98305.91;5032651;28;20033;-85
2022/05/23 01:26:06;;;;;;;0.10;0.10;;;;;;;20.24;48.71;98303.19;5033558;28;20034;-89
2022/05/23 01:28:38;;;;;;;0.00;0.00;;;;;;;20.17;48.85;98299.56;5052812;28;20398;-89
2022/05/23 01:31:05;;;;;;;0.05;0.05;;;;;;;20.19;48.91;98294.53;5041394;28;20045;-86
2022/05/23 01:33:31;;;;;;;0.00;0.00;;;;;;;20.18;49.07;98291.03;5052305;28;20492;-87
2022/05/23 01:35:57;;;;;;;0.03;0.03;;;;;;;20.15;49.46;98295.25;5052050;28;20053;-86
2022/05/23 01:38:24;;;;;;;0.15;0.15;;;;;;;20.10;49.41;98302.91;5052297;28;20048;-82
2022/05/23 01:40:50;;;;;;;0.10;0.10;;;;;;;20.07;49.50;98292.78;5052013;28;20033;-84
2022/05/23 01:43:16;;;;;;;0.10;0.10;;;;;;;20.02;49.84;98298.47;5039826;28;20128;-81
2022/05/23 01:45:41;;;;;;;0.00;0.00;;;;;;;19.99;49.62;98297.25;5038503;28;20108;-83
2022/05/23 01:48:08;;;;;;;0.05;0.05;;;;;;;19.98;49.94;98295.69;5033435;28;20061;-81
2022/05/23 01:50:34;;;;;;;0.00;0.00;;;;;;;19.92;50.11;98297.91;5051831;28;20454;-83
2022/05/23 01:52:59;;;;;;;0.10;0.10;;;;;;;19.97;50.04;98297.63;5051504;28;20483;-88
2022/05/23 01:55:25;;;;;;;0.00;0.00;;;;;;;19.89;50.06;98290.47;5052009;28;20036;-85
2022/05/23 01:57:51;;;;;;;0.13;0.13;;;;;;;19.87;50.16;98294.69;5048654;28;20026;-83
2022/05/23 02:03:02;;;;;;;0.00;0.00;;;;;;;19.87;50.09;98300.13;5032854;28;20040;-79
2022/05/23 02:05:28;;;;;;;0.00;0.00;;;;;;;19.87;50.28;98300.13;5037495;28;20025;-80
2022/05/23 02:07:54;;;;;;;0.10;0.10;;;;;;;19.78;50.39;98292.16;5050972;28;20056;-77
2022/05/23 02:10:20;;;;;;;0.10;0.10;;;;;;;19.81;50.27;98292.22;5037159;28;20037;-77
2022/05/23 02:12:46;;;;;;;0.13;0.13;;;;;;;19.82;50.26;98295.72;5032541;28;20108;-77
2022/05/23 02:15:12;;;;;;;0.10;0.10;;;;;;;19.80;50.18;98296.09;5048585;28;20036;-82
2022/05/23 02:17:38;;;;;;;0.10;0.10;;;;;;;19.81;50.27;98292.22;5052959;28;20025;-78
2022/05/23 02:20:06;;;;;;;0.10;0.10;;;;;;;19.76;50.33;98292.53;5038201;28;20472;-86
2022/05/23 02:22:32;;;;;;;0.20;0.20;;;;;;;19.77;50.41;98296.00;5031143;28;20033;-79
2022/05/23 02:24:58;;;;;;;1.98;0.50;;;;;;;19.76;50.79;98292.53;5031359;28;20033;-84
2022/05/23 02:27:23;;;;;;;0.10;0.10;;;;;;;19.76;50.67;98292.53;5042781;28;20408;-80
2022/05/23 02:29:49;;;;;;;0.10;0.10;;;;;;;19.75;50.76;98293.66;5045349;28;20247;-81
2022/05/23 02:32:14;;;;;;;0.10;0.10;;;;;;;19.70;51.02;98287.72;5031408;28;20489;-82
2022/05/23 02:34:41;;;;;;;0.30;0.30;;;;;;;19.70;51.04;98291.22;5032218;28;20050;-77
2022/05/23 02:37:06;;;;;;;0.10;0.10;;;;;;;19.70;51.16;98293.13;5030713;28;20116;-77
2022/05/23 02:39:32;;;;;;;0.10;0.10;;;;;;;19.66;51.26;98290.34;5046677;28;20123;-79
2022/05/23 02:41:57;;;;;;;0.10;0.10;;;;;;;19.60;51.66;98297.97;5039982;28;20033;-80
2022/05/23 02:44:22;;;;;;;0.80;0.25;;;;;;;19.57;51.56;98290.56;5030738;28;20022;-80
2022/05/23 02:46:48;;;;;;;0.10;0.10;;;;;;;19.53;51.52;98292.41;5030714;28;20025;-79
2022/05/23 02:49:13;;;;;;;0.00;0.00;;;;;;;19.49;51.63;98295.03;5030646;28;20091;-78
2022/05/23 02:51:39;;;;;;;0.10;0.10;;;;;;;19.51;51.87;98294.69;5032066;28;20112;-77
2022/05/23 02:54:05;;;;;;;0.10;0.10;;;;;;;19.50;51.80;98296.59;5044350;28;20036;-77
2022/05/23 02:56:31;;;;;;;0.00;0.00;;;;;;;19.51;51.97;98286.56;5049283;28;20025;-78
2022/05/23 02:58:57;;;;;;;0.00;0.00;;;;;;;19.51;51.81;98281.13;5033590;28;20524;-78
2022/05/23 03:01:22;;;;;;;0.00;0.00;;;;;;;19.54;52.07;98291.25;5030565;28;20025;-82
2022/05/23 03:03:48;;;;;;;0.00;0.00;;;;;;;19.69;52.12;98295.09;5030685;28;20025;-78
2022/05/23 03:06:13;;;;;;;0.15;0.15;;;;;;;19.83;51.49;98286.44;5030374;28;20025;-78
2022/05/23 03:08:39;;;;;;;0.08;0.08;;;;;;;19.98;51.08;98293.75;5031869;28;20044;-79
2022/05/23 03:11:06;;;;;;;0.10;0.10;;;;;;;20.18;51.00;98282.09;5044983;28;20029;-77
2022/05/23 03:13:32;;;;;;;0.10;0.10;;;;;;;20.28;50.49;98284.25;5037138;28;20032;-82
2022/05/23 03:15:58;;;;;;;0.00;0.00;;;;;;;20.42;50.19;98283.72;5043578;28;20082;-80
2022/05/23 03:18:24;;;;;;;0.10;0.10;;;;;;;20.46;49.83;98285.34;5050550;28;20029;-85
2022/05/23 03:20:59;;;;;;;0.20;0.20;;;;;;;20.60;49.69;98287.56;5050212;28;20029;-82
2022/05/23 03:26:58;;;;;;;0.10;0.10;;;;;;;21.22;48.33;98288.56;5049578;28;20043;-81
2022/05/23 03:29:00;;;;;;;0.05;0.05;;;;;;;21.70;47.40;98291.59;5030977;28;20045;-82
2022/05/23 03:31:35;;;;;;;0.05;0.05;;;;;;;22.13;46.54;98294.03;5040536;28;20075;-95
2022/05/23 03:34:02;;;;;;;0.10;0.10;;;;;;;22.56;45.37;98293.72;5050614;28;20530;-94
2022/05/23 03:36:28;;;;;;;0.10;0.10;;;;;;;23.06;44.24;98298.03;5021190;28;20107;-87
2022/05/23 03:38:53;;;;;;;0.45;0.45;;;;;;;23.36;43.40;98292.41;5029398;28;20025;-83
2022/05/23 03:41:19;;;;;;;0.08;0.08;;;;;;;23.71;42.86;98303.94;5033481;28;20060;-85
2022/05/23 03:43:44;;;;;;;0.00;0.00;;;;;;;24.17;41.75;98297.91;5037737;28;20021;-87
2022/05/23 03:46:12;;;;;;;0.00;0.00;;;;;;;24.56;40.93;98293.69;5038173;28;20033;-87
2022/05/23 03:48:38;;;;;;;0.20;0.20;;;;;;;24.90;40.21;98296.88;5049595;28;20036;-86
2022/05/23 03:51:05;;;;;;;0.00;0.00;;;;;;;25.22;39.70;98296.06;5041049;28;20536;-77
2022/05/23 03:53:31;;;;;;;0.00;0.00;;;;;;;25.55;39.14;98299.56;5031177;28;20035;-81
2022/05/23 03:55:57;;;;;;;0.00;0.00;;;;;;;25.89;38.35;98306.50;5034573;28;20112;-80
2022/05/23 03:58:25;;;;;;;0.17;0.17;;;;;;;26.28;37.72;98311.03;5051202;28;20029;-85
2022/05/23 04:00:51;;;;;;;0.00;0.00;;;;;;;26.51;36.05;98309.72;5049858;28;20029;-84
2022/05/23 04:03:19;;;;;;;0.43;0.32;;;;;;;26.76;36.49;98314.28;5047382;28;20490;-81
2022/05/23 04:05:46;;;;;;;0.00;0.00;;;;;;;27.02;35.71;98314.88;5029874;28;20025;-79
2022/05/23 04:08:12;;;;;;;0.10;0.10;;;;;;;27.16;35.36;98304.53;5028717;28;20480;-80
2022/05/23 04:10:41;;;;;;;0.08;0.08;;;;;;;27.37;34.68;98327.50;5032033;28;20069;-85
2022/05/23 04:13:07;;;;;;;0.10;0.10;;;;;;;27.53;34.41;98317.97;5049710;28;20458;-84
2022/05/23 04:15:32;;;;;;;0.00;0.00;;;;;;;27.82;34.18;98317.63;5037518;28;20034;-84
2022/05/23 04:17:58;;;;;;;0.00;0.00;;;;;;;28.13;33.86;98325.94;5048355;28;20086;-85
2022/05/23 04:20:23;;;;;;;0.30;0.30;;;;;;;28.41;33.36;98325.53;5049226;28;20021;-82
2022/05/23 04:22:52;;;;;;;0.00;0.00;;;;;;;28.63;32.65;98329.97;5049520;28;20029;-81
2022/05/23 04:25:18;;;;;;;0.00;0.00;;;;;;;28.79;32.68;98327.38;5038513;28;20061;-83
2022/05/23 04:27:43;;;;;;;0.00;0.00;;;;;;;29.10;31.78;98321.78;5040586;28;20492;-84
2022/05/23 04:30:09;;;;;;;0.00;0.00;;;;;;;29.26;31.80;98323.88;5029430;28;20025;-84
2022/05/23 04:35:20;;;;;;;0.00;0.00;;;;;;;29.35;31.88;98328.84;5030712;28;20084;-84
2022/05/23 04:37:51;;;;;;;0.00;0.00;;;;;;;29.57;31.76;98325.69;5029014;28;20518;-85
2022/05/23 04:40:21;;;;;;;0.08;0.08;;;;;;;29.81;31.61;98334.66;5029149;28;20503;-88
2022/05/23 04:42:47;;;;;;;0.10;0.10;;;;;;;30.15;30.45;98328.09;5028995;28;20037;-88
2022/05/23 04:45:14;;;;;;;0.00;0.00;;;;;;;30.46;30.55;98328.59;5029559;28;20041;-89
2022/05/23 04:50:24;;;;;;;0.00;0.00;;;;;;;31.16;28.95;98334.09;5030746;28;20420;-87
2022/05/23 04:52:50;;;;;;;0.08;0.08;;;;;;;31.21;29.03;98330.06;5030563;28;20036;-88
2022/05/23 04:55:17;;;;;;;0.00;0.00;;;;;;;31.28;28.76;98329.88;5030708;28;20107;-87
2022/05/23 04:57:42;;;;;;;0.17;0.17;;;;;;;31.48;28.56;98332.50;5029944;28;20080;-88
2022/05/23 05:00:11;;;;;;;0.00;0.00;;;;;;;31.61;27.56;98329.78;5029445;28;20029;-88
2022/05/23 05:02:37;;;;;;;0.00;0.00;;;;;;;31.66;27.84;98323.75;5028591;28;20068;-89
2022/05/23 05:05:04;;;;;;;0.40;0.30;;;;;;;31.77;27.80;98313.19;5028539;28;20065;-88
2022/05/23 05:07:30;;;;;;;0.00;0.00;;;;;;;31.84;27.03;98319.72;5029521;28;20039;-89
2022/05/23 05:09:55;;;;;;;0.00;0.00;;;;;;;31.67;27.45;98327.31;5028859;28;20034;-87
2022/05/23 05:12:21;;;;;;;0.00;0.00;;;;;;;31.50;27.35;98330.06;5027884;28;20030;-87
2022/05/23 05:14:47;;;;;;;0.00;0.00;;;;;;;31.37;27.83;98332.81;5028763;28;20026;-86
2022/05/23 05:17:12;;;;;;;0.08;0.08;;;;;;;31.22;27.76;98326.09;5029369;28;20038;-87
2022/05/23 05:19:38;;;;;;;0.10;0.10;;;;;;;31.07;28.46;98323.66;5029278;28;20405;-87
2022/05/23 05:22:03;;;;;;;0.10;0.10;;;;;;;30.92;28.68;98326.00;5032111;28;20103;-87
2022/05/23 05:24:32;;;;;;;0.08;0.08;;;;;;;30.80;28.63;98329.47;5032655;28;20025;-86
2022/05/23 05:26:58;;;;;;;0.10;0.10;;;;;;;30.83;29.15;98325.81;5039908;28;20040;-86
2022/05/23 05:29:24;;;;;;;0.00;0.00;;;;;;;30.65;29.34;98332.56;5052170;28;20484;-87
2022/05/23 05:32:06;;;;;;;0.00;0.00;;;;;;;30.86;29.17;98316.69;5052336;28;20089;-88
2022/05/23 05:34:41;;;;;;;0.35;0.20;;;;;;;30.60;29.50;98330.31;5051244;28;20049;-88
2022/05/23 05:37:15;;;;;;;0.00;0.00;;;;;;;30.56;29.70;98331.59;5051022;28;20043;-88
2022/05/23 05:39:43;;;;;;;0.38;0.20;;;;;;;30.53;29.28;98313.91;5051745;28;20036;-86
2022/05/23 05:42:18;;;;;;;0.00;0.00;;;;;;;30.54;29.12;98325.72;5050667;28;20109;-87
2022/05/23 05:44:49;;;;;;;0.00;0.00;;;;;;;30.61;30.01;98325.56;5051169;28;20033;-88
2022/05/23 05:47:17;;;;;;;0.00;0.00;;;;;;;30.84;29.47;98326.63;5050695;28;20549;-89
2022/05/23 05:49:46;;;;;;;0.00;0.00;;;;;;;31.19;29.01;98319.44;5051086;28;20414;-89
2022/05/23 05:52:13;;;;;;;0.00;0.00;;;;;;;31.36;29.04;98320.19;5051191;28;20029;-88
2022/05/23 05:54:40;;;;;;;0.00;0.00;;;;;;;31.62;28.76;98318.28;5051472;28;20207;-88
2022/05/23 05:57:08;;;;;;;0.00;0.00;;;;;;;31.65;28.68;98319.44;5051514;28;20021;-88
2022/05/23 05:59:35;;;;;;;0.10;0.10;;;;;;;31.65;28.38;98324.97;5051337;28;20024;-87
2022/05/23 06:02:00;;;;;;;0.00;0.00;;;;;;;31.75;28.12;98314.81;5052349;28;20042;-86
2022/05/23 06:04:26;;;;;;;0.00;0.00;;;;;;;31.68;28.68;98318.56;5050739;28;20025;-87
2022/05/23 06:12:19;;;;;;;0.10;0.10;;;;;;;32.17;28.54;98314.03;5052504;28;20048;-86
2022/05/23 06:14:45;;;;;;;0.13;0.13;;;;;;;32.18;27.79;98307.28;5050977;28;20037;-87
2022/05/23 06:17:11;;;;;;;0.60;0.15;;;;;;;32.26;27.74;98303.09;5050705;28;20029;-86
2022/05/23 06:19:46;;;;;;;0.28;0.28;;;;;;;32.25;26.95;98302.34;5050745;28;20055;-87
2022/05/23 06:22:13;;;;;;;0.00;0.00;;;;;;;32.12;27.40;98303.50;5050537;28;20119;-86
2022/05/23 06:24:39;;;;;;;0.00;0.00;;;;;;;32.20;27.04;98313.13;5051066;28;20039;-87
2022/05/23 06:27:06;;;;;;;0.00;0.00;;;;;;;32.18;26.86;98312.81;5041631;28;20467;-86
2022/05/23 06:29:33;;;;;;;0.00;0.00;;;;;;;32.02;27.53;98314.44;5030803;28;20511;-87
2022/05/23 06:31:59;;;;;;;0.05;0.05;;;;;;;31.96;27.40;98307.13;5029859;28;20481;-87
2022/05/23 06:34:25;;;;;;;0.10;0.10;;;;;;;31.89;27.83;98310.88;5030337;28;20107;-87
2022/05/23 06:36:50;;;;;;;0.00;0.00;;;;;;;31.84;27.93;98314.97;5031209;28;20040;-86
2022/05/23 06:39:17;;;;;;;0.00;0.00;;;;;;;31.77;27.62;98310.44;5030437;28;20025;-87
2022/05/23 06:41:43;;;;;;;0.00;0.00;;;;;;;31.66;28.36;98311.94;5030965;28;20112;-87
2022/05/23 06:44:08;;;;;;;0.22;0.22;;;;;;;31.68;28.47;98310.28;5030255;28;20124;-86
2022/05/23 06:46:34;;;;;;;0.00;0.00;;;;;;;31.56;28.81;98311.00;5031721;28;20125;-84
2022/05/23 06:48:59;;;;;;;0.10;0.10;;;;;;;31.30;28.76;98317.19;5030554;28;20029;-86
2022/05/23 06:51:25;;;;;;;0.10;0.10;;;;;;;31.24;28.94;98318.91;5029688;28;20397;-85
2022/05/23 06:53:51;;;;;;;0.00;0.00;;;;;;;31.27;29.09;98317.28;5030511;28;20026;-86
2022/05/23 06:56:17;;;;;;;0.00;0.00;;;;;;;31.03;29.21;98314.69;5030433;28;20477;-85
2022/05/23 06:58:42;;;;;;;0.15;0.15;;;;;;;30.95;29.50;98313.31;5030597;28;20052;-86
2022/05/23 07:01:08;;;;;;;0.08;0.08;;;;;;;30.78;29.33;98318.06;5030230;28;20416;-87
2022/05/23 07:03:33;;;;;;;0.00;0.00;;;;;;;30.75;29.67;98322.47;5030868;28;20398;-86
2022/05/23 07:14:15;;;;;;;0.00;0.00;;;;;;;30.38;30.10;98318.16;5031601;28;20405;-87
2022/05/23 07:16:41;;;;;;;0.00;0.00;;;;;;;30.30;30.29;98314.81;5030437;28;20416;-85
2022/05/23 07:19:06;;;;;;;0.00;0.00;;;;;;;30.29;30.25;98316.75;5030036;28;20032;-85
2022/05/23 07:21:32;;;;;;;0.00;0.00;;;;;;;30.27;30.61;98319.19;5029714;28;20034;-85
2022/05/23 07:24:00;;;;;;;0.00;0.00;;;;;;;30.16;29.42;98310.34;5029688;28;20033;-86
2022/05/23 07:26:26;;;;;;;0.10;0.10;;;;;;;30.12;29.31;98315.94;5029537;28;20026;-86
2022/05/23 07:28:53;;;;;;;0.30;0.30;;;;;;;30.16;29.64;98307.59;5029620;28;20052;-84
2022/05/23 07:31:19;;;;;;;0.00;0.00;;;;;;;30.05;28.80;98313.34;5029504;28;20436;-84
2022/05/23 07:33:45;;;;;;;0.00;0.00;;;;;;;29.92;28.94;98307.72;5029381;28;20029;-87
2022/05/23 07:36:11;;;;;;;0.00;0.00;;;;;;;29.92;29.26;98320.69;5029519;28;20030;-87
2022/05/23 07:38:37;;;;;;;0.00;0.00;;;;;;;29.83;29.39;98322.03;5029595;28;20072;-85
2022/05/23 07:41:05;;;;;;;0.00;0.00;;;;;;;29.72;28.82;98313.19;5030001;28;20029;-86
2022/05/23 07:43:35;;;;;;;0.10;0.10;;;;;;;29.62;29.13;98320.47;5030940;28;20041;-87
2022/05/23 07:46:07;;;;;;;0.00;0.00;;;;;;;29.65;28.09;98324.34;5029770;28;20127;-87
2022/05/23 07:48:33;;;;;;;0.00;0.00;;;;;;;29.52;27.20;98308.44;5029521;28;20045;-87
2022/05/23 07:50:58;;;;;;;0.00;0.00;;;;;;;29.52;27.44;98311.19;5029236;28;20029;-87
2022/05/23 08:01:35;;;;;;;0.00;0.00;;;;;;;28.83;26.29;98319.06;5031066;28;20035;-86
2022/05/23 08:04:01;;;;;;;0.00;0.00;;;;;;;28.70;25.76;98321.63;5029723;28;20063;-86
2022/05/23 08:06:26;;;;;;;0.00;0.00;;;;;;;28.62;26.60;98318.16;5029329;28;20025;-86
2022/05/23 08:08:52;;;;;;;0.00;0.00;;;;;;;28.71;26.55;98323.97;5029740;28;20044;-86
2022/05/23 08:11:17;;;;;;;0.00;0.00;;;;;;;28.69;25.28;98309.06;5029298;28;20021;-86
2022/05/23 08:13:47;;;;;;;0.10;0.10;;;;;;;28.65;25.18;98319.28;5029449;28;20554;-86
2022/05/23 08:16:13;;;;;;;0.00;0.00;;;;;;;28.60;25.28;98318.59;5029100;28;20077;-86
2022/05/23 08:18:38;;;;;;;0.00;0.00;;;;;;;28.56;25.47;98317.88;5029169;28;20033;-85
2022/05/23 08:21:04;;;;;;;0.00;0.00;;;;;;;28.56;25.35;98317.06;5029533;28;20028;-85
2022/05/23 08:23:29;;;;;;;0.05;0.05;;;;;;;28.54;25.04;98319.47;5029359;28;20033;-86
2022/05/23 08:25:55;;;;;;;0.10;0.10;;;;;;;28.46;25.63;98321.53;5029550;28;20120;-87
2022/05/23 08:28:21;;;;;;;0.00;0.00;;;;;;;28.50;25.73;98318.75;5049123;28;20033;-86
2022/05/23 08:30:47;;;;;;;0.00;0.00;;;;;;;28.39;25.37;98308.69;5049314;28;20492;-86
2022/05/23 08:33:12;;;;;;;0.32;0.28;;;;;;;28.26;26.15;98313.97;5049012;28;20468;-86
2022/05/23 08:35:38;;;;;;;0.00;0.00;;;;;;;28.28;25.67;98313.53;5048862;28;20126;-87
2022/05/23 08:38:04;;;;;;;0.00;0.00;;;;;;;28.38;25.01;98312.63;5048643;28;20033;-87
2022/05/23 08:40:47;;;;;;;0.00;0.00;;;;;;;28.40;25.64;98307.47;5049011;28;20056;-86
2022/05/23 08:43:18;;;;;;;0.00;0.00;;;;;;;28.42;25.87;98312.56;5048690;28;20033;-85
2022/05/23 08:45:45;;;;;;;0.00;0.00;;;;;;;28.47;25.41;98309.34;5048881;28;20035;-85
2022/05/23 08:48:18;;;;;;;0.00;0.00;;;;;;;28.51;25.87;98310.06;5048786;28;20559;-84
2022/05/23 08:50:59;;;;;;;0.00;0.00;;;;;;;28.52;26.38;98308.88;5048976;28;20094;-85
2022/05/23 08:53:31;;;;;;;0.00;0.00;;;;;;;28.47;25.80;98298.34;5049058;28;20540;-86
2022/05/23 08:56:14;;;;;;;0.35;0.35;;;;;;;28.46;26.50;98304.28;5050939;28;20032;-87
2022/05/23 08:58:48;;;;;;;0.10;0.10;;;;;;;28.41;26.75;98292.53;5053115;28;20056;-86
2022/05/23 09:01:19;;;;;;;0.10;0.10;;;;;;;28.33;26.18;98299.34;5052707;28;20029;-86
2022/05/23 09:04:08;;;;;;;0.00;0.00;;;;;;;28.38;26.37;98298.06;5053075;28;20566;-87
2022/05/23 09:06:45;;;;;;;0.00;0.00;;;;;;;28.37;25.75;98297.31;5052675;28;20400;-87
2022/05/23 09:09:15;;;;;;;0.25;0.25;;;;;;;28.24;24.90;98288.84;5052546;28;20035;-86
2022/05/23 09:11:44;;;;;;;0.22;0.10;;;;;;;28.16;25.68;98290.16;5053873;28;20041;-86
2022/05/23 09:14:12;;;;;;;0.10;0.10;;;;;;;28.17;25.99;98280.69;5052504;28;20462;-85
2022/05/23 09:16:45;;;;;;;0.00;0.00;;;;;;;28.08;25.77;98283.19;5052053;28;20407;-85
2022/05/23 09:19:25;;;;;;;0.00;0.00;;;;;;;27.95;25.81;98280.97;5052069;28;20377;-88
2022/05/23 09:24:48;;;;;;;0.00;0.00;;;;;;;27.85;25.79;98279.13;5053174;28;20086;-88
2022/05/23 09:27:39;;;;;;;0.00;0.00;;;;;;;27.84;26.82;98279.53;5041117;28;20025;-87
2022/05/23 09:30:11;;;;;;;0.00;0.00;;;;;;;27.88;27.18;98277.50;5031579;28;20040;-85
2022/05/23 09:32:56;;;;;;;0.10;0.10;;;;;;;28.05;28.15;98270.25;5032621;28;20041;-88
2022/05/23 09:35:27;;;;;;;0.00;0.00;;;;;;;28.02;27.96;98271.84;5031741;28;20095;-86
2022/05/23 09:38:12;;;;;;;0.00;0.00;;;;;;;28.08;26.94;98274.94;5032305;28;20034;-85
2022/05/23 09:40:38;;;;;;;0.00;0.00;;;;;;;27.98;27.45;98273.06;5033399;28;20025;-86
2022/05/23 09:49:14;;;;;;;0.17;0.17;;;;;;;28.05;27.48;98262.81;5033412;28;20107;-84
2022/05/23 09:51:49;;;;;;;0.00;0.00;;;;;;;28.10;28.14;98250.56;5031767;28;20563;-85
2022/05/23 09:54:40;;;;;;;0.00;0.00;;;;;;;28.17;28.91;98261.44;5031364;28;20037;-85
2022/05/23 09:57:22;;;;;;;0.00;0.00;;;;;;;28.17;29.13;98250.44;5027275;28;20033;-85
2022/05/23 10:00:00;;;;;;;0.00;0.00;;;;;;;28.23;28.05;98251.53;5031617;28;20038;-85
2022/05/23 10:02:39;;;;;;;;;;;;;;;28.36;28.60;98262.00;5031906;28;20092;-86
2022/05/23 10:05:21;;;;;;;0.00;0.00;;;;;;;28.38;28.93;98256.84;5031556;28;19909;-86
2022/05/23 10:07:54;;;;;;;0.00;0.00;;;;;;;28.35;28.72;98255.69;5031696;28;20025;-86
2022/05/23 10:10:19;;;;;;;0.10;0.10;;;;;;;28.40;28.69;98251.72;5031232;28;20021;-87
2022/05/23 10:12:45;;;;;;;0.00;0.00;;;;;;;28.46;28.22;98247.28;5031454;28;20032;-86
2022/05/23 10:15:11;;;;;;;0.00;0.00;;;;;;;28.50;28.56;98242.50;5031627;28;20060;-86
2022/05/23 10:17:38;;;;;;;0.00;0.00;;;;;;;28.53;27.11;98240.91;5032107;28;20420;-86
2022/05/23 10:20:23;;;;;;;0.10;0.10;;;;;;;28.56;27.30;98243.59;5031227;28;20103;-84
2022/05/23 10:23:04;;;;;;;0.00;0.00;;;;;;;28.59;28.02;98242.75;5030593;28;20040;-87
2022/05/23 10:25:46;;;;;;;0.00;0.00;;;;;;;28.65;27.11;98243.06;5030614;28;20149;-87
2022/05/23 10:28:18;;;;;;;0.00;0.00;;;;;;;28.65;27.79;98234.03;5049462;28;20070;-85
2022/05/23 10:31:02;;;;;;;0.10;0.10;;;;;;;28.73;28.25;98224.50;5051735;28;20025;-87
2022/05/23 10:33:29;;;;;;;0.22;0.22;;;;;;;28.72;27.22;98226.47;5050793;28;20028;-83
2022/05/23 10:36:14;;;;;;;0.03;0.03;;;;;;;28.77;27.60;98222.44;5050675;28;20144;-84
2022/05/23 10:44:54;;;;;;;0.00;0.00;;;;;;;28.86;26.67;98217.19;5052013;28;20068;-83
2022/05/23 10:47:41;;;;;;;0.00;0.00;;;;;;;28.88;26.58;98216.75;5050802;28;20037;-85
2022/05/23 10:51:04;;;;;;;0.00;0.00;;;;;;;28.92;26.96;98218.25;5051109;28;20060;-85
2022/05/23 10:53:48;;;;;;;0.00;0.00;;;;;;;28.91;26.69;98219.44;5011802;28;20044;-85
2022/05/23 10:56:32;;;;;;;0.00;0.00;;;;;;;28.99;27.18;98220.13;5050750;28;20607;-85
2022/05/23 10:59:13;;;;;;;0.00;0.00;;;;;;;29.04;26.65;98203.13;5052073;28;20051;-85
2022/05/23 11:01:57;;;;;;;0.00;0.00;;;;;;;29.12;26.17;98192.72;5050148;28;20036;-86
2022/05/23 11:04:38;;;;;;;0.00;0.00;;;;;;;29.23;26.11;98198.03;5050578;28;20079;-85
2022/05/23 11:07:16;;;;;;;0.00;0.00;;;;;;;29.35;26.83;98196.66;5050534;28;20025;-85
2022/05/23 11:10:14;;;;;;;0.00;0.00;;;;;;;29.31;26.04;98188.47;5050514;28;20033;-84
2022/05/23 11:12:58;;;;;;;0.00;0.00;;;;;;;29.35;26.20;98193.91;5049684;28;20037;-84
2022/05/23 11:15:39;;;;;;;0.00;0.00;;;;;;;29.38;26.20;98193.03;5049878;28;20144;-85
2022/05/23 11:18:20;;;;;;;0.00;0.00;;;;;;;29.36;25.27;98185.22;5049249;28;20041;-85
2022/05/23 11:20:50;;;;;;;0.10;0.10;;;;;;;29.21;25.41;98184.69;5049875;28;20025;-86
2022/05/23 11:23:41;;;;;;;0.00;0.00;;;;;;;29.20;25.76;98180.38;5050023;28;20544;-85
2022/05/23 11:26:30;;;;;;;0.00;0.00;;;;;;;29.13;25.72;98177.78;5049720;28;20041;-86
2022/05/23 11:35:06;;;;;;;0.28;0.28;;;;;;;29.18;26.02;98176.50;5031539;28;20532;-86
2022/05/23 11:37:45;;;;;;;0.00;0.00;;;;;;;29.14;25.45;98168.31;5031611;28;20113;-86
2022/05/23 11:40:39;;;;;;;0.00;0.00;;;;;;;29.11;25.12;98168.38;5030150;28;20026;-86
2022/05/23 11:43:10;;;;;;;0.00;0.00;;;;;;;29.07;25.07;98154.69;5030046;28;20030;-85
2022/05/23 11:45:57;;;;;;;0.10;0.10;;;;;;;29.07;25.43;98158.22;5029747;28;20444;-86
2022/05/23 11:51:22;;;;;;;0.00;0.00;;;;;;;29.14;26.81;98145.50;5031363;28;20061;-85
2022/05/23 11:53:57;;;;;;;0.00;0.00;;;;;;;29.20;26.58;98138.31;5030045;28;20393;-86
2022/05/23 11:56:34;;;;;;;0.17;0.17;;;;;;;29.24;25.96;98136.25;5029526;28;20124;-86
2022/05/23 11:59:00;;;;;;;0.00;0.00;;;;;;;29.23;25.16;98138.25;5029699;28;20026;-86
2022/05/23 12:01:27;;;;;;;0.00;0.00;;;;;;;29.19;25.02;98125.75;5031259;28;20075;-85
2022/05/23 12:03:54;;;;;;;0.00;0.00;;;;;;;29.24;25.39;98134.28;5029754;28;20052;-86
2022/05/23 12:06:29;;;;;;;0.00;0.00;;;;;;;29.20;25.34;98127.31;5029656;28;20029;-87
2022/05/23 12:08:57;;;;;;;0.20;0.20;;;;;;;29.16;25.49;98124.63;5029861;28;20037;-87
2022/05/23 12:11:25;;;;;;;0.00;0.00;;;;;;;29.14;25.29;98127.03;5029220;28;20122;-85
2022/05/23 12:13:52;;;;;;;0.15;0.15;;;;;;;29.02;25.43;98125.69;5031468;28;20034;-86
2022/05/23 12:16:22;;;;;;;0.20;0.20;;;;;;;28.92;25.34;98123.94;5030092;28;20116;-86
2022/05/23 12:18:49;;;;;;;0.22;0.17;;;;;;;28.88;25.29;98121.25;5030752;28;20059;-86
2022/05/23 12:21:36;;;;;;;0.00;0.00;;;;;;;28.90;25.06;98116.06;5029568;28;20026;-85
2022/05/23 12:24:22;;;;;;;0.00;0.00;;;;;;;28.88;25.62;98114.94;5031053;28;20100;-86
2022/05/23 12:26:51;;;;;;;0.00;0.00;;;;;;;28.95;25.39;98116.78;5036406;28;20033;-85
2022/05/23 12:29:31;;;;;;;0.00;0.00;;;;;;;29.02;25.17;98114.66;5049378;28;20037;-86
2022/05/23 12:32:10;;;;;;;0.00;0.00;;;;;;;29.06;24.44;98117.34;5053375;28;20029;-84
2022/05/23 12:34:41;;;;;;;0.00;0.00;;;;;;;29.12;24.70;98110.16;5052921;28;20581;-85
2022/05/23 12:37:14;;;;;;;0.00;0.00;;;;;;;29.15;24.64;98112.06;5053388;28;20033;-86
2022/05/23 12:39:49;;;;;;;0.00;0.00;;;;;;;29.21;24.30;98102.09;5052997;28;20064;-86
2022/05/23 12:42:29;;;;;;;0.00;0.00;;;;;;;29.23;24.13;98109.94;5052988;28;20140;-85
2022/05/23 12:45:04;;;;;;;0.43;0.43;;;;;;;29.30;24.43;98115.31;5052998;28;20287;-86
2022/05/23 12:48:14;;;;;;;0.10;0.10;;;;;;;29.34;24.59;98109.75;5052396;28;20112;-84
2022/05/23 12:50:59;;;;;;;0.00;0.00;;;;;;;29.37;23.33;98108.91;5052208;28;20565;-88